createdAt,value
2022-11-10T00:04:31.598Z,10.44
2022-11-10T00:09:35.066Z,10.44
2022-11-10T00:14:57.268Z,10.47
2022-11-10T00:20:01.091Z,10.49
2022-11-10T00:25:06.424Z,10.49
2022-11-10T00:30:10.879Z,10.48
2022-11-10T00:35:14.402Z,10.46
2022-11-10T00:40:18.381Z,10.44
2022-11-10T00:45:21.741Z,10.45
2022-11-10T00:50:25.773Z,10.46
2022-11-10T00:55:29.287Z,10.48
2022-11-10T01:00:33.028Z,10.52
2022-11-10T01:05:38.739Z,10.58
2022-11-10T01:10:42.192Z,10.58
2022-11-10T01:15:45.707Z,10.56
2022-11-10T01:20:52.860Z,10.56
2022-11-10T01:26:06.880Z,10.54
2022-11-10T01:31:14.605Z,10.54
2022-11-10T01:36:18.410Z,10.52
2022-11-10T01:41:21.882Z,10.55
2022-11-10T01:46:25.246Z,10.57
2022-11-10T01:52:11.701Z,10.58
2022-11-10T01:57:17.637Z,10.57
2022-11-10T02:02:38.363Z,10.56
2022-11-10T02:07:43.426Z,10.57
2022-11-10T02:12:49.816Z,10.57
2022-11-10T02:17:53.203Z,10.57
2022-11-10T02:22:56.858Z,10.55
2022-11-10T02:28:00.444Z,10.55
2022-11-10T02:33:04.371Z,10.54
2022-11-10T02:38:07.787Z,10.51
2022-11-10T02:43:14.849Z,10.49
2022-11-10T02:48:18.870Z,10.46
2022-11-10T02:53:22.571Z,10.45
2022-11-10T02:58:26.309Z,10.42
2022-11-10T03:03:29.977Z,10.42
2022-11-10T03:08:33.484Z,10.42
2022-11-10T03:13:58.880Z,10.37
2022-11-10T03:19:00.750Z,10.35
2022-11-10T03:24:05.349Z,10.33
2022-11-10T03:29:09.073Z,10.34
2022-11-10T03:34:12.577Z,10.33
2022-11-10T03:39:16.088Z,10.33
2022-11-10T03:44:19.604Z,10.32
2022-11-10T03:49:23.123Z,10.33
2022-11-10T03:54:26.640Z,10.34
2022-11-10T03:59:30.159Z,10.31
2022-11-10T04:04:52.206Z,10.28
2022-11-10T04:09:55.719Z,10.33
2022-11-10T04:15:17.575Z,10.31
2022-11-10T04:20:20.990Z,10.25
2022-11-10T04:25:24.393Z,10.23
2022-11-10T04:30:27.817Z,10.21
2022-11-10T04:35:31.324Z,10.16
2022-11-10T04:40:34.739Z,10.15
2022-11-10T04:45:38.150Z,10.18
2022-11-10T04:50:41.669Z,10.18
2022-11-10T04:55:46.380Z,10.15
2022-11-10T05:00:49.986Z,10.13
2022-11-10T05:05:53.551Z,10.10
2022-11-10T05:10:57.276Z,10.08
2022-11-10T05:16:01.097Z,10.07
2022-11-10T05:21:05.189Z,10.08
2022-11-10T05:26:13.150Z,10.12
2022-11-10T05:31:16.674Z,10.14
2022-11-10T05:36:20.271Z,10.09
2022-11-10T05:41:23.606Z,10.10
2022-11-10T05:46:27.207Z,10.09
2022-11-10T05:51:30.725Z,10.08
2022-11-10T05:56:34.091Z,10.07
2022-11-10T06:01:37.655Z,10.05
2022-11-10T06:06:41.157Z,10.00
2022-11-10T06:11:44.584Z,10.00
2022-11-10T06:16:48.095Z,10.00
2022-11-10T06:21:57.065Z,10.04
2022-11-10T06:27:04.264Z,10.06
2022-11-10T06:32:07.865Z,10.01
2022-11-10T06:37:11.360Z,10.00
2022-11-10T06:42:14.900Z,9.99
2022-11-10T06:47:18.494Z,10.00
2022-11-10T06:52:22.136Z,9.99
2022-11-10T06:57:25.526Z,10.00
2022-11-10T07:02:29.186Z,10.05
2022-11-10T07:07:32.688Z,10.06
2022-11-10T07:12:36.290Z,10.09
2022-11-10T07:17:42.686Z,10.11
2022-11-10T07:22:46.354Z,10.11
2022-11-10T07:28:01.441Z,10.12
2022-11-10T07:33:15.451Z,10.15
2022-11-10T07:38:18.881Z,10.15
2022-11-10T07:43:24.960Z,10.16
2022-11-10T07:48:28.671Z,10.21
2022-11-10T07:53:32.494Z,10.28
2022-11-10T07:58:36.115Z,10.33
2022-11-10T08:03:39.631Z,10.41
2022-11-10T08:08:43.273Z,10.50
2022-11-10T08:13:46.968Z,10.53
2022-11-10T08:18:50.696Z,10.59
2022-11-10T08:23:54.519Z,10.68
2022-11-10T08:28:58.540Z,10.75
2022-11-10T08:34:01.959Z,10.86
2022-11-10T08:39:05.674Z,11.07
2022-11-10T08:44:10.998Z,11.30
2022-11-10T08:49:15.060Z,11.34
2022-11-10T08:54:18.541Z,11.29
2022-11-10T08:59:22.482Z,11.26
2022-11-10T09:04:26.159Z,11.25
2022-11-10T09:09:29.743Z,11.22
2022-11-10T09:14:33.666Z,11.18
2022-11-10T09:19:37.514Z,11.25
2022-11-10T09:24:40.971Z,11.34
2022-11-10T09:29:44.387Z,11.56
2022-11-10T09:34:52.754Z,11.60
2022-11-10T09:40:01.081Z,11.59
2022-11-10T09:45:21.245Z,11.71
2022-11-10T09:50:46.479Z,11.82
2022-11-10T09:55:55.359Z,11.89
2022-11-10T10:01:26.824Z,11.88
2022-11-10T10:06:49.948Z,11.95
2022-11-10T10:12:41.020Z,11.97
2022-11-10T10:18:35.134Z,11.98
2022-11-10T10:29:24.049Z,12.03
2022-11-10T10:34:34.791Z,12.04
2022-11-10T10:39:48.700Z,12.08
2022-11-10T10:45:27.550Z,12.11
2022-11-10T10:50:35.671Z,12.17
2022-11-10T10:55:46.260Z,12.27
2022-11-10T11:00:58.834Z,12.30
2022-11-10T11:06:16.685Z,12.35
2022-11-10T11:11:26.787Z,12.35
2022-11-10T11:16:48.034Z,12.35
2022-11-10T11:22:45.817Z,12.36
2022-11-10T11:28:43.219Z,12.30
2022-11-10T11:34:22.698Z,12.26
2022-11-10T11:39:48.107Z,12.28
2022-11-10T11:45:06.564Z,12.29
2022-11-10T11:50:33.954Z,12.33
2022-11-10T11:56:19.173Z,12.35
2022-11-10T12:01:41.173Z,12.44
2022-11-10T12:07:12.499Z,12.48
2022-11-10T12:12:36.997Z,12.43
2022-11-10T12:17:56.956Z,12.38
2022-11-10T12:23:45.529Z,12.38
2022-11-10T12:29:24.577Z,12.43
2022-11-10T12:34:55.740Z,12.48
2022-11-10T12:40:13.376Z,12.49
2022-11-10T12:45:45.475Z,12.49
2022-11-10T12:51:17.661Z,12.42
2022-11-10T12:56:39.235Z,12.31
2022-11-10T13:01:44.794Z,12.22
2022-11-10T13:06:57.592Z,12.11
2022-11-10T13:12:25.130Z,11.99
2022-11-10T13:17:28.864Z,11.89
2022-11-10T13:22:37.192Z,11.84
2022-11-10T13:27:47.092Z,11.83
2022-11-10T13:32:50.715Z,11.83
2022-11-10T13:37:54.732Z,11.78
2022-11-10T13:42:58.730Z,11.77
2022-11-10T13:48:12.937Z,11.76
2022-11-10T13:53:56.282Z,11.73
2022-11-10T13:59:00.181Z,11.70
2022-11-10T14:04:05.100Z,11.66
2022-11-10T14:09:20.456Z,11.64
2022-11-10T14:15:00.129Z,11.67
2022-11-10T14:20:05.224Z,11.69
2022-11-10T14:25:28.460Z,11.73
2022-11-10T14:30:33.809Z,11.72
2022-11-10T14:35:49.348Z,11.72
2022-11-10T14:41:02.572Z,11.65
2022-11-10T14:46:08.013Z,11.57
2022-11-10T14:51:17.671Z,11.48
2022-11-10T14:56:36.653Z,11.35
2022-11-10T15:01:48.401Z,11.23
2022-11-10T15:06:53.939Z,11.13
2022-11-10T15:12:00.512Z,11.03
2022-11-10T15:17:21.159Z,10.95
2022-11-10T15:22:37.385Z,10.85
2022-11-10T15:27:41.002Z,10.80
2022-11-10T15:32:49.395Z,10.73
2022-11-10T15:38:25.301Z,10.65
2022-11-10T15:43:29.018Z,10.60
2022-11-10T15:48:58.666Z,10.53
2022-11-10T15:54:02.050Z,10.47
2022-11-10T15:59:05.672Z,10.44
2022-11-10T16:04:13.136Z,10.44
2022-11-10T16:09:16.506Z,10.38
2022-11-10T16:14:19.894Z,10.30
2022-11-10T16:19:23.781Z,10.25
2022-11-10T16:24:27.329Z,10.22
2022-11-10T16:29:33.884Z,10.19
2022-11-10T16:34:37.574Z,10.16
2022-11-10T16:39:41.156Z,10.10
2022-11-10T16:44:44.676Z,10.03
2022-11-10T16:49:49.524Z,9.96
2022-11-10T16:54:52.938Z,9.88
2022-11-10T16:59:56.569Z,9.84
2022-11-10T17:05:00.068Z,9.83
2022-11-10T17:10:04.831Z,9.83
2022-11-10T17:15:13.690Z,9.88
2022-11-10T17:20:35.608Z,9.95
2022-11-10T17:25:39.230Z,10.02
2022-11-10T17:30:43.274Z,9.98
2022-11-10T17:35:50.053Z,9.88
2022-11-10T17:40:54.201Z,9.75
2022-11-10T17:45:57.700Z,9.68
2022-11-10T17:51:01.793Z,9.63
2022-11-10T17:56:05.959Z,9.60
2022-11-10T18:01:22.300Z,9.59
2022-11-10T18:06:25.887Z,9.57
2022-11-10T18:11:29.305Z,9.51
2022-11-10T18:16:33.131Z,9.50
2022-11-10T18:21:36.648Z,9.49
2022-11-10T18:26:40.060Z,9.48
2022-11-10T18:31:43.466Z,9.45
2022-11-10T18:36:46.986Z,9.42
2022-11-10T18:41:50.807Z,9.36
2022-11-10T18:46:54.526Z,9.30
2022-11-10T18:51:58.810Z,9.26
2022-11-10T18:57:02.189Z,9.24
2022-11-10T19:02:06.068Z,9.21
2022-11-10T19:07:09.975Z,9.16
2022-11-10T19:12:14.258Z,9.08
2022-11-10T19:17:20.041Z,8.98
2022-11-10T19:22:23.795Z,8.92
2022-11-10T19:27:27.368Z,8.89
2022-11-10T19:32:30.886Z,8.92
2022-11-10T19:37:35.277Z,8.97
2022-11-10T19:42:38.635Z,8.99
2022-11-10T19:47:43.105Z,8.99
2022-11-10T19:52:46.495Z,8.88
2022-11-10T19:57:50.052Z,8.75
2022-11-10T20:02:53.620Z,8.62
2022-11-10T20:08:12.420Z,8.55
2022-11-10T20:13:15.810Z,8.53
2022-11-10T20:18:19.324Z,8.52
2022-11-10T20:23:23.048Z,8.55
2022-11-10T20:28:26.666Z,8.53
2022-11-10T20:33:33.312Z,8.52
2022-11-10T20:38:37.791Z,8.47
2022-11-10T20:43:41.514Z,8.40
2022-11-10T20:48:47.027Z,8.41
2022-11-10T20:53:50.595Z,8.44
2022-11-10T20:58:54.066Z,8.48
2022-11-10T21:03:57.469Z,8.52
2022-11-10T21:09:00.899Z,8.51
2022-11-10T21:14:04.460Z,8.45
2022-11-10T21:19:08.555Z,8.44
2022-11-10T21:24:12.472Z,8.46
2022-11-10T21:29:16.131Z,8.51
2022-11-10T21:34:19.650Z,8.51
2022-11-10T21:39:23.164Z,8.50
2022-11-10T21:44:26.886Z,8.44
2022-11-10T21:49:30.297Z,8.38
2022-11-10T21:54:33.815Z,8.29
2022-11-10T21:59:37.241Z,8.17
2022-11-10T22:04:40.662Z,8.11
2022-11-10T22:10:02.485Z,8.06
2022-11-10T22:15:30.949Z,8.04
2022-11-10T22:20:34.370Z,8.06
2022-11-10T22:25:38.736Z,8.07
2022-11-10T22:30:42.125Z,8.09
2022-11-10T22:35:45.668Z,8.05
2022-11-10T22:41:07.927Z,8.00
2022-11-10T22:46:11.396Z,8.01
2022-11-10T22:51:14.961Z,8.05
2022-11-10T22:56:19.605Z,8.05
2022-11-10T23:01:24.344Z,8.04
2022-11-10T23:06:29.888Z,8.04
2022-11-10T23:11:33.975Z,8.05
2022-11-10T23:16:37.556Z,8.08
2022-11-10T23:21:41.179Z,8.04
2022-11-10T23:26:44.750Z,7.95
2022-11-10T23:31:48.065Z,7.92
2022-11-10T23:36:51.627Z,7.93
2022-11-10T23:41:55.153Z,7.89
2022-11-10T23:46:58.753Z,7.87
2022-11-10T23:52:02.374Z,7.88
2022-11-10T23:57:06.093Z,7.87
